Time;durP1;ratioP1;P1;durP2;ratioP2;P2;SDS_P1;SDS_P2;PMS_P1;PMS_P2;Temp;Humidity;BMP_temperature;BMP_pressure;BME280_temperature;BME280_humidity;BME280_pressure;Samples;Min_cycle;Max_cycle;Signal;HPM_P1;HPM_P2
2021/04/24 00:00:12;;;;;;;25.07;12.47;;;2.50;99.90;;;;;;4439466;32;20213;-74
2021/04/24 00:02:43;;;;;;;24.77;11.67;;;2.50;99.90;;;;;;4440142;32;20174;-74
2021/04/24 00:05:16;;;;;;;25.27;12.30;;;2.50;99.90;;;;;;4440369;32;20150;-74
2021/04/24 00:07:43;;;;;;;24.10;11.97;;;2.40;99.90;;;;;;4441484;32;20510;-74
2021/04/24 00:10:10;;;;;;;26.73;11.57;;;2.40;99.90;;;;;;4440761;32;20142;-74
2021/04/24 00:12:37;;;;;;;24.57;12.53;;;2.30;99.90;;;;;;4440299;32;20464;-74
2021/04/24 00:15:07;;;;;;;23.37;11.67;;;2.30;99.90;;;;;;4441057;32;20456;-73
2021/04/24 00:17:34;;;;;;;25.43;12.40;;;2.30;99.90;;;;;;4439675;32;20198;-74
2021/04/24 00:20:01;;;;;;;28.40;12.30;;;2.30;99.90;;;;;;4439994;32;20170;-74
2021/04/24 00:22:28;;;;;;;22.23;12.10;;;2.30;99.90;;;;;;4441042;32;20218;-74
2021/04/24 00:24:54;;;;;;;30.37;12.67;;;2.20;99.90;;;;;;4439593;32;20546;-73
2021/04/24 00:27:21;;;;;;;24.10;12.60;;;2.20;99.90;;;;;;4439759;32;20174;-73
2021/04/24 00:29:48;;;;;;;21.63;11.63;;;2.20;99.90;;;;;;4440873;32;20195;-74
2021/04/24 00:32:14;;;;;;;20.80;11.00;;;2.20;99.90;;;;;;4439331;32;20190;-74
2021/04/24 00:34:41;;;;;;;23.70;11.13;;;2.20;99.90;;;;;;4440335;32;20169;-74
2021/04/24 00:37:07;;;;;;;24.40;11.60;;;2.20;99.90;;;;;;4438920;32;20224;-74
2021/04/24 00:39:34;;;;;;;23.57;10.77;;;2.10;99.90;;;;;;4441071;32;20525;-74
2021/04/24 00:42:01;;;;;;;21.33;10.50;;;2.10;99.90;;;;;;4440437;32;20174;-74
2021/04/24 00:44:27;;;;;;;26.53;11.47;;;2.10;99.90;;;;;;4440282;32;20157;-74
2021/04/24 00:46:53;;;;;;;24.80;10.90;;;2.10;99.90;;;;;;4441968;32;20134;-73
2021/04/24 00:49:20;;;;;;;24.50;11.30;;;2.10;99.90;;;;;;4442326;32;20194;-74
2021/04/24 00:51:47;;;;;;;22.30;10.77;;;2.10;99.90;;;;;;4444036;32;20181;-74
2021/04/24 00:54:13;;;;;;;23.47;10.93;;;2.10;99.90;;;;;;4442408;32;20157;-74
2021/04/24 00:56:40;;;;;;;24.17;11.07;;;2.10;99.90;;;;;;4442106;32;20181;-74
2021/04/24 00:59:06;;;;;;;24.87;11.37;;;2.00;99.90;;;;;;4442230;32;20164;-74
2021/04/24 01:01:33;;;;;;;22.83;10.17;;;2.00;99.90;;;;;;4441814;32;20488;-74
2021/04/24 01:04:00;;;;;;;22.70;10.73;;;1.90;99.90;;;;;;4441828;32;20571;-74
2021/04/24 01:06:26;;;;;;;21.40;10.17;;;1.90;99.90;;;;;;4442131;32;20143;-74
2021/04/24 01:08:53;;;;;;;24.20;10.50;;;2.00;99.90;;;;;;4442386;32;20202;-74
2021/04/24 01:11:20;;;;;;;20.57;10.00;;;1.90;99.90;;;;;;4442061;32;20143;-73
2021/04/24 01:13:46;;;;;;;25.87;11.40;;;1.80;99.90;;;;;;4443042;32;20201;-73
2021/04/24 01:16:13;;;;;;;23.23;10.30;;;1.80;99.90;;;;;;4442067;32;20214;-73
2021/04/24 01:18:40;;;;;;;21.20;10.77;;;1.80;99.90;;;;;;4441944;32;20142;-74
2021/04/24 01:21:08;;;;;;;23.20;10.73;;;1.80;99.90;;;;;;4441422;32;20165;-74
2021/04/24 01:23:34;;;;;;;21.37;10.40;;;1.80;99.90;;;;;;4442780;32;20150;-74
2021/04/24 01:26:02;;;;;;;25.80;9.90;;;1.80;99.90;;;;;;4441979;32;20484;-74
2021/04/24 01:28:29;;;;;;;22.60;10.30;;;1.80;99.90;;;;;;4441514;32;20161;-74
2021/04/24 01:30:56;;;;;;;20.13;10.40;;;1.80;99.90;;;;;;4441805;32;20139;-74
2021/04/24 01:33:24;;;;;;;23.93;10.20;;;1.80;99.90;;;;;;4441855;32;20165;-74
2021/04/24 01:35:50;;;;;;;20.77;9.80;;;1.80;99.90;;;;;;4441154;32;20189;-74
2021/04/24 01:38:17;;;;;;;20.80;9.63;;;1.80;99.90;;;;;;4441167;32;20135;-73
2021/04/24 01:40:44;;;;;;;19.93;9.63;;;1.70;99.90;;;;;;4441696;32;20215;-73
2021/04/24 01:43:11;;;;;;;21.13;9.70;;;1.70;99.90;;;;;;4441580;32;20192;-73
2021/04/24 01:45:38;;;;;;;21.23;9.23;;;1.70;99.90;;;;;;4443131;32;20206;-73
2021/04/24 01:48:06;;;;;;;17.43;8.67;;;1.70;99.90;;;;;;4441667;32;20147;-73
2021/04/24 01:50:43;;;;;;;19.47;9.13;;;1.60;99.90;;;;;;4441455;32;20159;-74
2021/04/24 01:53:16;;;;;;;18.43;8.83;;;1.70;99.90;;;;;;4441936;32;20134;-73
2021/04/24 01:55:43;;;;;;;17.73;8.87;;;1.70;99.90;;;;;;4441429;32;20161;-74
2021/04/24 01:58:12;;;;;;;19.87;9.30;;;1.70;99.90;;;;;;4442616;32;20135;-74
2021/04/24 02:00:59;;;;;;;19.33;9.17;;;1.70;99.90;;;;;;4440861;32;20139;-74
2021/04/24 02:03:28;;;;;;;21.27;8.80;;;1.60;99.90;;;;;;4440940;32;20246;-73
2021/04/24 02:05:56;;;;;;;17.87;8.70;;;1.60;99.90;;;;;;4440792;32;20416;-73
2021/04/24 02:08:30;;;;;;;16.07;8.70;;;1.60;99.90;;;;;;4441397;32;20174;-73
2021/04/24 02:10:58;;;;;;;15.50;7.80;;;1.60;99.90;;;;;;4441887;32;20146;-73
2021/04/24 02:13:31;;;;;;;17.07;8.23;;;1.60;99.90;;;;;;4441144;32;20164;-73
2021/04/24 02:15:58;;;;;;;17.83;8.50;;;1.60;99.90;;;;;;4441488;32;20135;-73
2021/04/24 02:18:27;;;;;;;17.57;7.70;;;1.50;99.90;;;;;;4441200;32;20138;-74
2021/04/24 02:20:55;;;;;;;19.67;8.03;;;1.50;99.90;;;;;;4440542;32;20166;-73
2021/04/24 02:23:22;;;;;;;18.07;8.47;;;1.50;99.90;;;;;;4441030;32;20234;-74
2021/04/24 02:25:49;;;;;;;16.27;7.93;;;1.50;99.90;;;;;;4441062;32;20135;-73
2021/04/24 02:28:16;;;;;;;20.43;7.90;;;1.50;99.90;;;;;;4442493;32;20192;-73
2021/04/24 02:30:44;;;;;;;17.43;7.50;;;1.50;99.90;;;;;;4440957;32;20199;-73
2021/04/24 02:33:12;;;;;;;16.17;7.57;;;1.40;99.90;;;;;;4442463;32;20212;-73
2021/04/24 02:35:49;;;;;;;17.93;7.57;;;1.40;99.90;;;;;;4441132;32;20200;-73
2021/04/24 02:38:19;;;;;;;18.57;8.03;;;1.40;99.90;;;;;;4441742;32;20398;-74
2021/04/24 02:40:47;;;;;;;17.23;7.17;;;1.40;99.90;;;;;;4441071;32;20165;-73
2021/04/24 02:43:15;;;;;;;18.20;7.77;;;1.40;99.90;;;;;;4440227;32;20185;-74
2021/04/24 02:45:44;;;;;;;16.90;7.53;;;1.40;99.90;;;;;;4440826;32;20212;-74
2021/04/24 02:48:11;;;;;;;15.60;6.97;;;1.40;99.90;;;;;;4440922;32;20151;-74
2021/04/24 02:50:38;;;;;;;16.97;6.97;;;1.40;99.90;;;;;;4440718;32;20142;-74
2021/04/24 02:53:05;;;;;;;14.27;7.37;;;1.40;99.90;;;;;;4440719;32;20169;-73
2021/04/24 02:55:32;;;;;;;16.00;7.57;;;1.30;99.90;;;;;;4440165;32;20186;-73
2021/04/24 02:57:58;;;;;;;16.83;7.20;;;1.30;99.90;;;;;;4440543;32;20138;-73
2021/04/24 03:00:26;;;;;;;16.37;7.17;;;1.30;99.90;;;;;;4441300;32;20191;-73
2021/04/24 03:03:10;;;;;;;15.60;6.93;;;1.30;99.90;;;;;;4440446;32;20158;-73
2021/04/24 03:05:38;;;;;;;16.50;7.27;;;1.20;99.90;;;;;;4440514;32;20476;-73
2021/04/24 03:08:06;;;;;;;15.23;6.70;;;1.20;99.90;;;;;;4439950;32;20138;-73
2021/04/24 03:10:35;;;;;;;13.93;6.73;;;1.30;99.90;;;;;;4440477;32;20154;-74
2021/04/24 03:13:06;;;;;;;18.37;7.23;;;1.20;99.90;;;;;;4440428;32;20450;-73
2021/04/24 03:15:33;;;;;;;16.73;6.90;;;1.30;99.90;;;;;;4440583;32;20138;-74
2021/04/24 03:18:00;;;;;;;16.10;7.07;;;1.20;99.90;;;;;;4440208;32;20142;-74
2021/04/24 03:20:27;;;;;;;17.03;7.30;;;1.20;99.90;;;;;;4439750;32;20151;-74
2021/04/24 03:22:54;;;;;;;18.87;7.00;;;1.20;99.90;;;;;;4440766;32;20138;-74
2021/04/24 03:25:20;;;;;;;15.87;6.87;;;1.20;99.90;;;;;;4440562;32;20146;-73
2021/04/24 03:27:47;;;;;;;14.57;6.70;;;1.20;99.90;;;;;;4441176;32;20379;-74
2021/04/24 03:30:14;;;;;;;15.87;6.97;;;1.20;99.90;;;;;;4441089;32;20343;-74
2021/04/24 03:32:41;;;;;;;12.57;6.47;;;1.20;99.90;;;;;;4440258;32;20534;-74
2021/04/24 03:35:10;;;;;;;13.93;6.73;;;1.10;99.90;;;;;;4441280;32;20456;-74
2021/04/24 03:37:37;;;;;;;14.87;6.77;;;1.10;99.90;;;;;;4440080;32;20142;-74
2021/04/24 03:40:06;;;;;;;15.63;5.93;;;1.10;99.90;;;;;;4439534;32;20189;-74
2021/04/24 03:42:32;;;;;;;15.80;6.50;;;1.20;99.90;;;;;;4439859;32;20173;-74
2021/04/24 03:44:59;;;;;;;16.07;6.80;;;1.20;99.90;;;;;;4439903;32;20200;-74
2021/04/24 03:47:26;;;;;;;17.23;6.87;;;1.20;99.90;;;;;;4439392;32;20147;-73
2021/04/24 03:49:53;;;;;;;15.00;6.30;;;1.10;99.90;;;;;;4440245;32;20331;-73
2021/04/24 03:52:19;;;;;;;15.50;6.43;;;1.20;99.90;;;;;;4440273;32;20168;-73
2021/04/24 03:54:47;;;;;;;13.10;6.17;;;1.20;99.90;;;;;;4441366;32;20138;-73
2021/04/24 03:57:13;;;;;;;16.33;6.50;;;1.30;99.90;;;;;;4439390;32;20135;-73
2021/04/24 03:59:40;;;;;;;16.77;6.50;;;1.30;99.90;;;;;;4440433;32;20192;-73
2021/04/24 04:02:06;;;;;;;14.20;6.40;;;1.30;99.90;;;;;;4439633;32;20153;-74
2021/04/24 04:04:33;;;;;;;17.13;6.27;;;1.30;99.90;;;;;;4440630;32;20147;-74
2021/04/24 04:07:00;;;;;;;14.87;6.40;;;1.40;99.90;;;;;;4439673;32;20456;-74
2021/04/24 04:09:27;;;;;;;14.47;6.67;;;1.50;99.90;;;;;;4440473;32;20166;-74
2021/04/24 04:11:53;;;;;;;13.90;6.43;;;1.50;99.90;;;;;;4440037;32;20213;-74
2021/04/24 04:14:20;;;;;;;14.97;6.77;;;1.50;99.90;;;;;;4439192;32;20161;-74
2021/04/24 04:16:46;;;;;;;17.63;7.30;;;1.50;99.90;;;;;;4439660;32;20146;-74
2021/04/24 04:19:13;;;;;;;14.03;6.57;;;1.50;99.90;;;;;;4441536;32;20440;-74
2021/04/24 04:21:40;;;;;;;13.27;6.43;;;1.60;99.90;;;;;;4442648;32;20169;-74
2021/04/24 04:24:07;;;;;;;13.70;5.93;;;1.50;99.90;;;;;;4443017;32;20151;-74
2021/04/24 04:26:33;;;;;;;12.30;6.20;;;1.60;99.90;;;;;;4442895;32;20161;-74
2021/04/24 04:29:00;;;;;;;13.20;6.30;;;1.70;99.90;;;;;;4443606;32;20135;-74
2021/04/24 04:31:27;;;;;;;16.50;6.37;;;1.80;99.90;;;;;;4444101;32;20165;-74
2021/04/24 04:33:58;;;;;;;13.67;6.23;;;1.80;99.90;;;;;;4443088;32;20525;-74
2021/04/24 04:36:24;;;;;;;12.13;6.20;;;1.90;99.90;;;;;;4442189;32;20167;-74
2021/04/24 04:38:50;;;;;;;13.33;6.30;;;1.90;99.90;;;;;;4442209;32;20447;-74
2021/04/24 04:41:17;;;;;;;11.07;5.57;;;1.90;99.90;;;;;;4442557;32;20134;-74
2021/04/24 04:43:44;;;;;;;11.53;5.80;;;1.90;99.90;;;;;;4441648;32;20207;-74
2021/04/24 04:46:11;;;;;;;13.80;5.90;;;2.00;99.90;;;;;;4443469;32;20173;-74
2021/04/24 04:48:38;;;;;;;15.57;6.53;;;2.00;99.90;;;;;;4443709;32;20243;-74
2021/04/24 04:51:05;;;;;;;12.37;6.30;;;2.20;99.90;;;;;;4443663;32;20161;-74
2021/04/24 04:53:31;;;;;;;13.10;5.93;;;2.30;99.90;;;;;;4441944;32;20201;-74
2021/04/24 04:56:11;;;;;;;12.10;5.87;;;2.30;99.90;;;;;;4442292;32;20158;-74
2021/04/24 04:58:38;;;;;;;12.70;6.13;;;2.30;99.90;;;;;;4443161;32;20158;-75
2021/04/24 05:01:10;;;;;;;15.77;7.00;;;2.30;99.90;;;;;;4442513;32;20193;-74
2021/04/24 05:03:38;;;;;;;12.60;6.37;;;2.40;99.90;;;;;;4442102;32;20167;-74
2021/04/24 05:06:05;;;;;;;15.23;6.60;;;2.50;99.90;;;;;;4442248;32;20499;-74
2021/04/24 05:08:35;;;;;;;11.93;6.10;;;2.60;99.90;;;;;;4442482;32;20208;-74
2021/04/24 05:11:06;;;;;;;18.17;6.47;;;2.80;99.90;;;;;;4443525;32;20170;-75
2021/04/24 05:13:33;;;;;;;16.03;7.50;;;2.90;99.90;;;;;;4443078;32;20131;-75
2021/04/24 05:16:00;;;;;;;12.67;5.90;;;3.00;99.90;;;;;;4442690;32;20445;-75
2021/04/24 05:18:27;;;;;;;12.27;5.77;;;3.00;99.90;;;;;;4442720;32;20190;-75
2021/04/24 05:20:54;;;;;;;13.13;6.00;;;3.00;99.90;;;;;;4442103;32;20157;-75
2021/04/24 05:23:21;;;;;;;11.37;5.63;;;3.10;99.90;;;;;;4441883;32;20154;-74
2021/04/24 05:25:48;;;;;;;13.63;5.63;;;3.10;99.90;;;;;;4441938;32;20135;-74
2021/04/24 05:28:14;;;;;;;12.37;5.97;;;3.20;99.90;;;;;;4441985;32;20206;-74
2021/04/24 05:30:41;;;;;;;12.13;5.63;;;3.40;99.90;;;;;;4441240;32;20177;-75
2021/04/24 05:33:08;;;;;;;14.50;6.57;;;3.50;99.90;;;;;;4441315;32;20139;-74
2021/04/24 05:35:35;;;;;;;14.70;6.30;;;3.60;99.90;;;;;;4441212;32;20166;-74
2021/04/24 05:38:02;;;;;;;11.63;6.07;;;3.60;99.90;;;;;;4441729;32;20175;-74
2021/04/24 05:40:28;;;;;;;12.87;5.80;;;3.60;99.90;;;;;;4441970;32;20157;-74
2021/04/24 05:42:55;;;;;;;13.77;5.53;;;3.70;99.90;;;;;;4441685;32;20147;-74
2021/04/24 05:45:22;;;;;;;11.23;5.97;;;3.80;99.90;;;;;;4441729;32;20231;-74
2021/04/24 05:47:50;;;;;;;11.80;5.33;;;3.70;99.90;;;;;;4441512;32;20178;-74
2021/04/24 05:50:20;;;;;;;13.67;6.20;;;3.80;99.90;;;;;;4441892;32;20161;-74
2021/04/24 05:52:53;;;;;;;12.57;5.93;;;3.70;99.90;;;;;;4441571;32;20198;-74
2021/04/24 05:55:19;;;;;;;10.70;5.37;;;3.80;99.90;;;;;;4441495;32;20163;-74
2021/04/24 05:57:46;;;;;;;13.23;5.63;;;3.80;99.90;;;;;;4442093;32;20146;-75
2021/04/24 06:00:16;;;;;;;10.73;5.20;;;3.90;99.60;;;;;;4440898;32;20169;-74
2021/04/24 06:02:43;;;;;;;11.27;5.50;;;4.00;98.80;;;;;;4441256;32;20207;-73
2021/04/24 06:05:11;;;;;;;11.70;5.43;;;4.00;99.50;;;;;;4441221;32;20209;-73
2021/04/24 06:07:38;;;;;;;9.47;4.67;;;4.20;99.90;;;;;;4440742;32;20144;-73
2021/04/24 06:10:08;;;;;;;10.43;4.57;;;4.30;98.00;;;;;;4441275;32;20146;-74
2021/04/24 06:12:35;;;;;;;9.83;4.40;;;4.20;98.10;;;;;;4440566;32;20159;-74
2021/04/24 06:15:03;;;;;;;10.50;4.93;;;4.20;97.50;;;;;;4440609;32;20176;-74
2021/04/24 06:17:30;;;;;;;9.73;4.77;;;4.20;97.60;;;;;;4441005;32;20140;-75
2021/04/24 06:19:57;;;;;;;13.43;5.10;;;4.30;98.60;;;;;;4440924;32;20142;-75
2021/04/24 06:22:23;;;;;;;10.63;5.40;;;4.30;97.90;;;;;;4440583;32;20416;-74
2021/04/24 06:24:50;;;;;;;11.33;5.00;;;4.40;97.50;;;;;;4440894;32;20144;-75
2021/04/24 06:27:17;;;;;;;11.83;5.77;;;4.40;97.60;;;;;;4441159;32;20400;-74
2021/04/24 06:29:44;;;;;;;12.73;5.40;;;4.30;97.60;;;;;;4440970;32;20150;-75
2021/04/24 06:32:10;;;;;;;12.97;5.43;;;4.50;97.80;;;;;;4440300;32;20143;-75
2021/04/24 06:34:38;;;;;;;10.93;5.10;;;4.60;97.90;;;;;;4439141;32;20163;-74
2021/04/24 06:37:06;;;;;;;11.47;5.47;;;4.80;96.60;;;;;;4441362;32;20546;-75
2021/04/24 06:39:33;;;;;;;9.57;4.70;;;4.80;96.40;;;;;;4441229;32;20422;-74
2021/04/24 06:42:00;;;;;;;10.97;5.10;;;4.80;96.20;;;;;;4440945;32;20140;-74
2021/04/24 06:44:27;;;;;;;11.03;4.90;;;4.80;96.50;;;;;;4440156;32;20157;-74
2021/04/24 06:46:54;;;;;;;10.27;4.90;;;5.00;96.50;;;;;;4440761;32;20194;-74
2021/04/24 06:49:20;;;;;;;10.57;5.00;;;5.20;95.60;;;;;;4441963;32;20142;-75
2021/04/24 06:51:47;;;;;;;13.77;4.73;;;5.30;95.10;;;;;;4441465;32;20369;-75
2021/04/24 06:54:14;;;;;;;10.00;4.57;;;5.20;94.60;;;;;;4440402;32;20383;-74
2021/04/24 06:56:40;;;;;;;10.47;4.70;;;5.20;95.00;;;;;;4440467;32;20158;-75
2021/04/24 06:59:07;;;;;;;8.10;4.17;;;5.40;95.10;;;;;;4440261;32;20474;-75
2021/04/24 07:01:33;;;;;;;9.13;4.07;;;5.40;94.10;;;;;;4440536;32;20202;-75
2021/04/24 07:04:00;;;;;;;9.40;4.70;;;5.40;94.40;;;;;;4440108;32;20202;-75
2021/04/24 07:06:26;;;;;;;10.37;3.83;;;5.60;93.40;;;;;;4440593;32;20132;-75
2021/04/24 07:08:53;;;;;;;8.40;4.00;;;5.70;93.40;;;;;;4440427;32;20152;-75
2021/04/24 07:11:20;;;;;;;15.17;4.20;;;5.80;93.30;;;;;;4440307;32;20133;-75
2021/04/24 07:13:47;;;;;;;9.70;3.90;;;5.80;91.90;;;;;;4439784;32;20198;-74
2021/04/24 07:16:14;;;;;;;8.13;3.93;;;5.90;91.70;;;;;;4440126;32;20210;-74
2021/04/24 07:18:41;;;;;;;9.53;4.10;;;5.80;91.60;;;;;;4440074;32;20436;-75
2021/04/24 07:21:08;;;;;;;9.70;4.33;;;5.90;92.20;;;;;;4439997;32;20145;-75
2021/04/24 07:23:36;;;;;;;7.73;3.80;;;6.00;92.80;;;;;;4440294;32;20155;-75
2021/04/24 07:26:03;;;;;;;7.77;3.67;;;6.20;91.60;;;;;;4440295;32;20165;-75
2021/04/24 07:28:31;;;;;;;8.13;3.73;;;6.20;91.40;;;;;;4439437;32;20146;-75
2021/04/24 07:30:57;;;;;;;8.00;3.63;;;6.40;90.90;;;;;;4441295;32;20449;-75
2021/04/24 07:33:24;;;;;;;7.47;3.40;;;6.30;90.60;;;;;;4439822;32;20152;-75
2021/04/24 07:35:52;;;;;;;6.47;3.30;;;6.30;89.10;;;;;;4440142;32;20167;-75
2021/04/24 07:38:19;;;;;;;9.70;3.77;;;6.30;89.20;;;;;;4439119;32;20144;-75
2021/04/24 07:40:47;;;;;;;8.43;3.87;;;6.30;89.50;;;;;;4439752;32;20138;-74
2021/04/24 07:43:14;;;;;;;8.93;3.30;;;6.40;90.30;;;;;;4439790;32;20352;-73
2021/04/24 07:45:41;;;;;;;8.93;3.40;;;6.50;89.50;;;;;;4441057;32;20188;-74
2021/04/24 07:48:08;;;;;;;6.67;3.10;;;6.60;88.40;;;;;;4440319;32;20153;-74
2021/04/24 07:50:35;;;;;;;7.30;3.70;;;6.70;88.00;;;;;;4439846;32;20511;-74
2021/04/24 07:53:03;;;;;;;6.77;3.03;;;6.90;87.40;;;;;;4439197;32;20193;-75
2021/04/24 07:55:30;;;;;;;7.57;3.07;;;6.80;87.00;;;;;;4440996;32;20180;-75
2021/04/24 07:57:56;;;;;;;8.63;3.37;;;6.90;87.30;;;;;;4439521;32;20146;-75
2021/04/24 08:00:24;;;;;;;8.60;3.47;;;7.00;86.80;;;;;;4439252;32;20497;-73
2021/04/24 08:02:50;;;;;;;6.50;2.97;;;7.10;86.60;;;;;;4438566;32;20180;-74
2021/04/24 08:05:17;;;;;;;7.70;3.20;;;7.40;84.40;;;;;;4440612;32;20394;-72
2021/04/24 08:07:57;;;;;;;10.13;3.57;;;8.60;82.00;;;;;;4439129;32;20525;-72
2021/04/24 08:10:24;;;;;;;5.57;2.90;;;9.60;76.30;;;;;;4439832;32;20231;-73
2021/04/24 08:12:50;;;;;;;5.47;3.20;;;10.20;73.00;;;;;;4440814;32;20193;-72
2021/04/24 08:15:17;;;;;;;9.03;3.63;;;10.40;70.70;;;;;;4439167;32;20188;-71
2021/04/24 08:17:44;;;;;;;6.73;3.40;;;10.70;71.20;;;;;;4439237;32;20138;-74
2021/04/24 08:20:12;;;;;;;6.97;3.50;;;10.90;67.40;;;;;;4438992;32;20167;-72
2021/04/24 08:22:39;;;;;;;9.70;3.03;;;10.80;69.40;;;;;;4439020;32;20453;-72
2021/04/24 08:25:07;;;;;;;7.53;3.10;;;10.50;68.00;;;;;;4438280;32;20415;-71
2021/04/24 08:27:34;;;;;;;7.30;2.93;;;10.30;68.80;;;;;;4440625;32;20138;-72
2021/04/24 08:30:02;;;;;;;6.33;3.00;;;10.40;71.50;;;;;;4439196;32;20166;-73
2021/04/24 08:32:28;;;;;;;7.37;3.60;;;11.20;70.30;;;;;;4440742;32;20182;-73
2021/04/24 08:34:54;;;;;;;8.40;3.27;;;11.50;67.90;;;;;;4439093;32;20237;-72
2021/04/24 08:37:21;;;;;;;7.10;3.10;;;11.20;64.70;;;;;;4438667;32;20143;-72
2021/04/24 08:39:47;;;;;;;6.63;3.03;;;10.90;67.10;;;;;;4439138;32;20130;-72
2021/04/24 08:42:15;;;;;;;6.90;3.00;;;11.00;66.50;;;;;;4438892;32;20169;-72
2021/04/24 08:44:43;;;;;;;8.57;3.50;;;11.20;66.10;;;;;;4439255;32;20241;-73
2021/04/24 08:47:10;;;;;;;7.90;3.10;;;11.30;66.10;;;;;;4438872;32;20217;-74
2021/04/24 08:49:40;;;;;;;6.10;3.10;;;10.90;66.30;;;;;;4439080;32;20131;-73
2021/04/24 08:52:07;;;;;;;7.03;3.20;;;11.10;66.10;;;;;;4438792;32;20210;-73
2021/04/24 08:54:33;;;;;;;7.13;3.03;;;11.10;66.40;;;;;;4438977;32;20514;-73
2021/04/24 08:57:00;;;;;;;7.67;3.20;;;10.70;65.80;;;;;;4439023;32;20142;-72
2021/04/24 08:59:27;;;;;;;4.23;2.73;;;10.70;67.10;;;;;;4439114;32;20419;-72
2021/04/24 09:01:54;;;;;;;7.33;2.87;;;10.20;67.80;;;;;;4438807;32;20189;-73
2021/04/24 09:04:20;;;;;;;6.33;3.40;;;10.30;68.50;;;;;;4439221;32;20151;-71
2021/04/24 09:06:47;;;;;;;7.27;3.07;;;10.60;67.80;;;;;;4442906;32;20146;-73
2021/04/24 09:09:13;;;;;;;5.00;2.87;;;11.10;66.00;;;;;;4442076;32;20147;-72
2021/04/24 09:11:40;;;;;;;5.30;2.97;;;11.20;64.10;;;;;;4441860;32;20459;-72
2021/04/24 09:14:10;;;;;;;4.90;2.90;;;11.10;64.20;;;;;;4441694;32;20147;-73
2021/04/24 09:16:38;;;;;;;3.73;2.40;;;11.10;64.40;;;;;;4443174;32;20202;-74
2021/04/24 09:19:31;;;;;;;5.47;2.57;;;11.40;62.40;;;;;;4441690;32;20142;-72
2021/04/24 09:22:16;;;;;;;4.73;2.40;;;11.20;60.60;;;;;;4441757;32;20437;-71
2021/04/24 09:24:45;;;;;;;4.63;2.60;;;11.20;61.80;;;;;;4441611;32;20173;-73
2021/04/24 09:27:12;;;;;;;6.37;2.77;;;11.90;62.60;;;;;;4441816;32;20417;-74
2021/04/24 09:30:30;;;;;;;6.83;2.87;;;12.10;59.20;;;;;;4443105;32;20192;-74
2021/04/24 09:33:12;;;;;;;4.63;2.30;;;12.60;58.90;;;;;;4442952;32;20154;-74
2021/04/24 09:35:45;;;;;;;5.70;2.30;;;11.90;56.60;;;;;;4441965;32;20158;-75
2021/04/24 09:38:19;;;;;;;7.17;2.43;;;11.60;57.70;;;;;;4441678;32;20371;-73
2021/04/24 09:41:23;;;;;;;3.87;2.40;;;11.20;59.20;;;;;;4443248;32;20146;-73
2021/04/24 09:44:10;;;;;;;4.63;2.50;;;11.70;59.30;;;;;;4441575;32;20222;-73
2021/04/24 09:46:46;;;;;;;4.23;2.10;;;12.10;57.00;;;;;;4441638;32;20146;-74
2021/04/24 09:49:20;;;;;;;4.57;2.10;;;11.90;55.50;;;;;;4441421;32;20164;-74
2021/04/24 09:51:50;;;;;;;3.27;2.03;;;12.20;55.40;;;;;;4441585;32;20398;-73
2021/04/24 09:54:18;;;;;;;3.90;1.90;;;12.00;53.50;;;;;;4442913;32;20198;-74
2021/04/24 09:57:00;;;;;;;3.43;1.80;;;12.20;54.00;;;;;;4442132;32;20149;-73
2021/04/24 09:59:28;;;;;;;3.33;1.87;;;12.40;51.90;;;;;;4441156;32;20142;-73
2021/04/24 10:02:05;;;;;;;5.23;2.03;;;12.60;50.30;;;;;;4440875;32;20134;-68
2021/04/24 10:04:31;;;;;;;5.80;2.70;;;12.70;52.20;;;;;;4438510;32;20146;-67
2021/04/24 10:06:58;;;;;;;5.33;2.23;;;12.30;54.10;;;;;;4438521;32;20177;-68
2021/04/24 10:09:28;;;;;;;4.63;2.13;;;12.50;52.50;;;;;;4440725;32;20219;-68
2021/04/24 10:12:00;;;;;;;3.27;1.70;;;12.80;51.30;;;;;;4438328;32;20162;-68
2021/04/24 10:14:36;;;;;;;4.73;2.00;;;13.40;49.30;;;;;;4438078;32;20158;-67
2021/04/24 10:17:10;;;;;;;4.03;1.60;;;13.70;46.70;;;;;;4441625;32;20485;-67
2021/04/24 10:19:38;;;;;;;4.07;2.00;;;13.90;47.80;;;;;;4442640;32;20154;-69
2021/04/24 10:22:07;;;;;;;3.80;1.93;;;13.60;46.90;;;;;;4441880;32;20482;-69
2021/04/24 10:24:34;;;;;;;3.53;1.90;;;13.20;48.50;;;;;;4440319;32;20178;-68
2021/04/24 10:27:02;;;;;;;3.67;1.90;;;13.10;49.90;;;;;;4440397;32;20483;-67
2021/04/24 10:29:29;;;;;;;3.07;1.90;;;12.50;52.20;;;;;;4441934;32;20217;-68
2021/04/24 10:31:56;;;;;;;3.77;2.00;;;12.20;52.50;;;;;;4442232;32;20472;-67
2021/04/24 10:34:24;;;;;;;4.27;2.17;;;11.90;53.30;;;;;;4440503;32;20306;-68
2021/04/24 10:36:50;;;;;;;6.13;2.30;;;11.80;53.80;;;;;;4440157;32;20214;-66
2021/04/24 10:39:23;;;;;;;4.77;2.37;;;12.60;54.20;;;;;;4441673;32;20154;-67
2021/04/24 10:42:05;;;;;;;4.70;2.33;;;13.30;51.20;;;;;;4440218;32;20226;-67
2021/04/24 10:44:46;;;;;;;2.73;1.77;;;13.40;49.90;;;;;;4441852;32;20234;-68
2021/04/24 10:47:14;;;;;;;2.20;1.17;;;13.60;46.50;;;;;;4441292;32;20191;-68
2021/04/24 10:49:56;;;;;;;3.40;1.60;;;14.40;42.70;;;;;;4439595;32;20156;-67
2021/04/24 10:52:24;;;;;;;2.47;1.30;;;13.50;40.10;;;;;;4441003;32;20174;-68
2021/04/24 10:55:13;;;;;;;4.13;1.73;;;13.50;42.30;;;;;;4439908;32;20229;-67
2021/04/24 10:57:46;;;;;;;2.47;1.60;;;12.70;46.40;;;;;;4441562;32;20151;-69
2021/04/24 11:00:15;;;;;;;3.67;1.83;;;12.40;49.50;;;;;;4441668;32;20204;-68
2021/04/24 11:02:49;;;;;;;5.37;2.07;;;12.40;50.70;;;;;;4440728;32;20306;-68
2021/04/24 11:05:19;;;;;;;4.93;2.47;;;12.50;52.50;;;;;;4441280;32;20404;-66
2021/04/24 11:07:46;;;;;;;6.13;2.70;;;12.20;53.80;;;;;;4439187;32;20171;-67
2021/04/24 11:10:17;;;;;;;4.13;2.30;;;11.90;55.30;;;;;;4439371;32;20203;-67
2021/04/24 11:12:46;;;;;;;5.33;2.53;;;11.40;57.50;;;;;;4439964;32;20158;-68
2021/04/24 11:15:16;;;;;;;4.73;2.60;;;11.50;57.10;;;;;;4438802;32;20214;-68
2021/04/24 11:17:43;;;;;;;5.07;2.50;;;11.70;58.20;;;;;;4441302;32;20197;-69
2021/04/24 11:20:11;;;;;;;5.23;2.30;;;12.50;55.60;;;;;;4441225;32;20135;-69
2021/04/24 11:22:41;;;;;;;5.60;2.10;;;13.20;53.60;;;;;;4439603;32;20355;-67
2021/04/24 11:25:17;;;;;;;4.37;1.73;;;13.30;50.10;;;;;;4440855;32;20143;-66
2021/04/24 11:28:03;;;;;;;3.20;1.50;;;13.60;47.70;;;;;;4441403;32;20208;-67
2021/04/24 11:31:00;;;;;;;3.00;1.07;;;13.50;45.30;;;;;;4440743;32;20146;-67
2021/04/24 11:33:37;;;;;;;2.70;1.50;;;14.00;41.80;;;;;;4440688;32;20519;-66
2021/04/24 11:36:13;;;;;;;3.03;1.70;;;13.90;46.30;;;;;;4439721;32;20200;-67
2021/04/24 11:38:59;;;;;;;6.90;1.40;;;14.00;48.40;;;;;;4441060;32;20408;-68
2021/04/24 11:41:55;;;;;;;2.83;1.37;;;13.30;48.20;;;;;;4441710;32;20138;-67
2021/04/24 11:44:28;;;;;;;2.50;1.47;;;12.50;49.90;;;;;;4376859;32;20267;-67
2021/04/24 11:46:56;;;;;;;3.03;1.47;;;12.00;50.90;;;;;;4378262;32;20234;-67
2021/04/24 11:49:27;;;;;;;3.33;1.40;;;11.70;51.90;;;;;;4378279;32;20636;-66
2021/04/24 11:51:59;;;;;;;2.70;1.40;;;11.20;53.20;;;;;;4378121;32;20175;-67
2021/04/24 11:54:42;;;;;;;3.40;1.40;;;11.20;53.70;;;;;;4377571;32;20148;-66
2021/04/24 11:57:15;;;;;;;1.70;1.37;;;11.40;53.70;;;;;;4376409;32;20148;-69
2021/04/24 11:59:43;;;;;;;3.00;1.70;;;12.00;52.70;;;;;;4376211;32;20144;-68
2021/04/24 12:02:14;;;;;;;3.30;1.80;;;12.50;51.70;;;;;;4376367;32;20234;-67
2021/04/24 12:04:40;;;;;;;2.60;1.60;;;12.90;52.90;;;;;;4377974;32;20164;-67
2021/04/24 12:07:11;;;;;;;5.73;2.00;;;12.90;53.70;;;;;;4376706;32;20164;-71
2021/04/24 12:09:47;;;;;;;3.20;1.80;;;12.50;54.00;;;;;;4374476;32;20562;-71
2021/04/24 12:12:19;;;;;;;2.97;1.70;;;11.50;55.30;;;;;;4375770;32;20181;-72
2021/04/24 12:14:46;;;;;;;3.13;1.70;;;10.70;55.30;;;;;;4374737;32;20388;-72
2021/04/24 12:17:17;;;;;;;4.00;1.80;;;10.60;57.00;;;;;;4374096;32;20203;-71
2021/04/24 12:19:45;;;;;;;2.43;1.53;;;10.50;56.90;;;;;;4376804;32;20306;-71
2021/04/24 12:22:19;;;;;;;2.63;1.50;;;10.60;56.90;;;;;;4422108;32;20190;-71
2021/04/24 12:24:58;;;;;;;3.40;1.50;;;10.70;53.20;;;;;;4424616;32;20479;-72
2021/04/24 12:27:33;;;;;;;3.67;1.70;;;10.60;52.20;;;;;;4437752;32;20472;-72
2021/04/24 12:30:01;;;;;;;2.83;1.50;;;10.60;51.90;;;;;;4440329;32;20571;-72
2021/04/24 12:32:49;;;;;;;2.97;1.50;;;10.70;51.10;;;;;;4438011;32;20162;-71
2021/04/24 12:35:30;;;;;;;3.97;1.73;;;10.60;51.00;;;;;;4435527;32;20174;-71
2021/04/24 12:38:18;;;;;;;2.87;1.47;;;10.80;50.20;;;;;;4440534;32;20529;-72
2021/04/24 12:40:47;;;;;;;3.20;1.40;;;11.00;49.20;;;;;;4441804;32;20165;-72
2021/04/24 12:43:21;;;;;;;2.03;1.40;;;11.60;45.60;;;;;;4443378;32;20169;-70
2021/04/24 12:45:50;;;;;;;2.97;1.50;;;12.70;45.00;;;;;;4440281;32;20512;-72
2021/04/24 12:48:19;;;;;;;2.70;1.30;;;13.40;43.50;;;;;;4441481;32;20469;-71
2021/04/24 12:50:51;;;;;;;3.97;1.50;;;13.90;41.50;;;;;;4442321;32;20161;-73
2021/04/24 12:53:41;;;;;;;3.43;1.83;;;14.50;41.50;;;;;;4442166;32;20194;-71
2021/04/24 12:56:31;;;;;;;3.10;2.10;;;15.00;41.30;;;;;;4443519;32;20190;-72